sensor_id;sensor_type;location;lat;lon;timestamp;pressure;altitude;pressure_sealevel;temperature;humidity
20897;BME280;10608;42.600;23.398;2024-03-17T00:00:29;84128.56;;;-138.15;66.14
20897;BME280;10608;42.600;23.398;2024-03-17T00:02:55;84136.50;;;-138.15;66.72
20897;BME280;10608;42.600;23.398;2024-03-17T00:05:20;84164.34;;;-138.15;66.30
20897;BME280;10608;42.600;23.398;2024-03-17T00:07:46;84134.50;;;-138.15;66.91
20897;BME280;10608;42.600;23.398;2024-03-17T00:10:11;84156.38;;;-138.15;66.49
20897;BME280;10608;42.600;23.398;2024-03-17T00:12:37;84130.53;;;-138.15;67.13
20897;BME280;10608;42.600;23.398;2024-03-17T00:15:04;84160.34;;;-138.15;67.11
20897;BME280;10608;42.600;23.398;2024-03-17T00:17:30;84160.34;;;-138.15;67.19
20897;BME280;10608;42.600;23.398;2024-03-17T00:19:55;84176.25;;;-138.15;67.07
20897;BME280;10608;42.600;23.398;2024-03-17T00:22:22;84154.41;;;-138.15;66.80
20897;BME280;10608;42.600;23.398;2024-03-17T00:24:47;84176.25;;;-138.15;67.34
20897;BME280;10608;42.600;23.398;2024-03-17T00:27:12;84180.25;;;-138.15;67.65
20897;BME280;10608;42.600;23.398;2024-03-17T00:29:38;84196.16;;;-138.15;67.18
20897;BME280;10608;42.600;23.398;2024-03-17T00:32:05;84200.13;;;-138.15;68.10
20897;BME280;10608;42.600;23.398;2024-03-17T00:34:31;84218.00;;;-138.15;68.36
20897;BME280;10608;42.600;23.398;2024-03-17T00:36:56;84247.84;;;-138.15;68.69
20897;BME280;10608;42.600;23.398;2024-03-17T00:39:22;84208.06;;;-138.15;69.45
20897;BME280;10608;42.600;23.398;2024-03-17T00:41:48;84196.16;;;-138.15;69.45
20897;BME280;10608;42.600;23.398;2024-03-17T00:44:14;84241.88;;;-138.15;69.08
20897;BME280;10608;42.600;23.398;2024-03-17T00:46:39;84212.03;;;-138.15;69.10
20897;BME280;10608;42.600;23.398;2024-03-17T00:49:07;84208.06;;;-138.15;68.96
20897;BME280;10608;42.600;23.398;2024-03-17T00:51:33;84261.75;;;-138.15;69.26
20897;BME280;10608;42.600;23.398;2024-03-17T00:53:58;84291.56;;;-138.15;69.69
20897;BME280;10608;42.600;23.398;2024-03-17T00:56:23;84283.63;;;-138.15;70.03
20897;BME280;10608;42.600;23.398;2024-03-17T00:58:49;84247.84;;;-138.15;69.33
20897;BME280;10608;42.600;23.398;2024-03-17T01:01:16;84295.53;;;-138.15;69.72
20897;BME280;10608;42.600;23.398;2024-03-17T01:03:42;84299.53;;;-138.15;70.18
20897;BME280;10608;42.600;23.398;2024-03-17T01:06:08;84305.50;;;-138.15;70.49
20897;BME280;10608;42.600;23.398;2024-03-17T01:08:33;84299.53;;;-138.15;71.06
20897;BME280;10608;42.600;23.398;2024-03-17T01:10:58;84315.44;;;-138.15;70.52
20897;BME280;10608;42.600;23.398;2024-03-17T01:13:24;84277.66;;;-138.15;71.48
20897;BME280;10608;42.600;23.398;2024-03-17T01:15:52;84307.47;;;-138.15;71.61
20897;BME280;10608;42.600;23.398;2024-03-17T01:18:18;84311.44;;;-138.15;71.29
20897;BME280;10608;42.600;23.398;2024-03-17T01:20:44;84311.44;;;-138.15;71.57
20897;BME280;10608;42.600;23.398;2024-03-17T01:23:09;84347.25;;;-138.15;72.32
20897;BME280;10608;42.600;23.398;2024-03-17T01:25:35;84321.41;;;-138.15;72.60
20897;BME280;10608;42.600;23.398;2024-03-17T01:28:04;84365.13;;;-138.15;72.75
20897;BME280;10608;42.600;23.398;2024-03-17T01:30:29;84355.19;;;-138.15;73.22
20897;BME280;10608;42.600;23.398;2024-03-17T01:32:55;84317.41;;;-138.15;72.94
20897;BME280;10608;42.600;23.398;2024-03-17T01:35:20;84363.16;;;-138.15;73.01
20897;BME280;10608;42.600;23.398;2024-03-17T01:37:46;84367.13;;;-138.15;73.49
20897;BME280;10608;42.600;23.398;2024-03-17T01:40:12;84373.09;;;-138.15;73.72
20897;BME280;10608;42.600;23.398;2024-03-17T01:42:38;84335.31;;;-138.15;73.88
20897;BME280;10608;42.600;23.398;2024-03-17T01:45:26;84381.03;;;-138.15;73.82
20897;BME280;10608;42.600;23.398;2024-03-17T01:47:53;84341.28;;;-138.15;73.48
20897;BME280;10608;42.600;23.398;2024-03-17T01:50:19;84339.28;;;-138.15;74.01
20897;BME280;10608;42.600;23.398;2024-03-17T01:52:53;84355.19;;;-138.15;74.14
20897;BME280;10608;42.600;23.398;2024-03-17T01:55:22;84367.13;;;-138.15;74.32
20897;BME280;10608;42.600;23.398;2024-03-17T01:57:50;84337.31;;;-138.15;74.21
20897;BME280;10608;42.600;23.398;2024-03-17T02:00:15;84365.13;;;-138.15;73.77
20897;BME280;10608;42.600;23.398;2024-03-17T02:02:41;84315.44;;;-138.15;74.35
20897;BME280;10608;42.600;23.398;2024-03-17T02:05:07;84329.34;;;-138.15;74.47
20897;BME280;10608;42.600;23.398;2024-03-17T02:07:32;84329.34;;;-138.15;73.55
20897;BME280;10608;42.600;23.398;2024-03-17T02:09:58;84363.16;;;-138.15;73.66
20897;BME280;10608;42.600;23.398;2024-03-17T02:12:24;84363.16;;;-138.15;73.80
20897;BME280;10608;42.600;23.398;2024-03-17T02:14:50;84303.50;;;-138.15;73.43
20897;BME280;10608;42.600;23.398;2024-03-17T02:17:16;84327.34;;;-138.15;73.47
20897;BME280;10608;42.600;23.398;2024-03-17T02:19:42;84371.09;;;-138.15;73.79
20897;BME280;10608;42.600;23.398;2024-03-17T02:22:16;84381.03;;;-138.15;74.26
20897;BME280;10608;42.600;23.398;2024-03-17T02:24:42;84385.00;;;-138.15;74.58
20897;BME280;10608;42.600;23.398;2024-03-17T02:27:08;84371.09;;;-138.15;75.11
20897;BME280;10608;42.600;23.398;2024-03-17T02:29:34;84369.09;;;-138.15;75.27
20897;BME280;10608;42.600;23.398;2024-03-17T02:32:08;84363.16;;;-138.15;75.70
20897;BME280;10608;42.600;23.398;2024-03-17T02:34:37;84359.16;;;-138.15;75.93
20897;BME280;10608;42.600;23.398;2024-03-17T02:37:04;84335.31;;;-138.15;75.47
20897;BME280;10608;42.600;23.398;2024-03-17T02:39:31;84398.94;;;-138.15;75.42
20897;BME280;10608;42.600;23.398;2024-03-17T02:42:07;84375.06;;;-138.15;75.27
20897;BME280;10608;42.600;23.398;2024-03-17T02:44:34;84446.66;;;-138.15;75.95
20897;BME280;10608;42.600;23.398;2024-03-17T02:47:01;84381.03;;;-138.15;76.09
20897;BME280;10608;42.600;23.398;2024-03-17T02:49:28;84383.03;;;-138.15;75.95
20897;BME280;10608;42.600;23.398;2024-03-17T02:52:00;84385.00;;;-138.15;76.27
20897;BME280;10608;42.600;23.398;2024-03-17T02:54:26;84371.09;;;-138.15;76.56
20897;BME280;10608;42.600;23.398;2024-03-17T02:56:51;84410.84;;;-138.15;76.91
20897;BME280;10608;42.600;23.398;2024-03-17T02:59:16;84375.06;;;-138.15;77.14
20897;BME280;10608;42.600;23.398;2024-03-17T03:01:42;84385.00;;;-138.15;76.78
20897;BME280;10608;42.600;23.398;2024-03-17T03:04:08;84460.56;;;-138.15;76.21
20897;BME280;10608;42.600;23.398;2024-03-17T03:06:33;84426.75;;;-138.15;76.14
20897;BME280;10608;42.600;23.398;2024-03-17T03:08:59;84402.91;;;-138.15;76.08
20897;BME280;10608;42.600;23.398;2024-03-17T03:11:24;84428.75;;;-138.15;76.23
20897;BME280;10608;42.600;23.398;2024-03-17T03:13:51;84416.81;;;-138.15;77.02
20897;BME280;10608;42.600;23.398;2024-03-17T03:16:16;84490.38;;;-138.15;77.11
20897;BME280;10608;42.600;23.398;2024-03-17T03:18:44;84416.81;;;-138.15;77.55
20897;BME280;10608;42.600;23.398;2024-03-17T03:21:10;84422.78;;;-138.15;78.04
20897;BME280;10608;42.600;23.398;2024-03-17T03:23:37;84442.66;;;-138.15;78.48
20897;BME280;10608;42.600;23.398;2024-03-17T03:26:03;84440.69;;;-138.15;78.77
20897;BME280;10608;42.600;23.398;2024-03-17T03:28:31;84450.63;;;-138.15;79.16
20897;BME280;10608;42.600;23.398;2024-03-17T03:30:56;84438.69;;;-138.15;79.46
20897;BME280;10608;42.600;23.398;2024-03-17T03:33:24;84426.75;;;-138.15;78.80
20897;BME280;10608;42.600;23.398;2024-03-17T03:35:49;84430.75;;;-138.15;78.72
20897;BME280;10608;42.600;23.398;2024-03-17T03:38:16;84454.59;;;-138.15;78.65
20897;BME280;10608;42.600;23.398;2024-03-17T03:40:42;84484.44;;;-138.15;78.74
20897;BME280;10608;42.600;23.398;2024-03-17T03:43:08;84466.53;;;-138.15;79.09
20897;BME280;10608;42.600;23.398;2024-03-17T03:45:34;84496.34;;;-138.15;79.14
20897;BME280;10608;42.600;23.398;2024-03-17T03:48:00;84480.44;;;-138.15;79.26
20897;BME280;10608;42.600;23.398;2024-03-17T03:50:26;84514.25;;;-138.15;79.81
20897;BME280;10608;42.600;23.398;2024-03-17T03:52:51;84506.28;;;-138.15;80.21
20897;BME280;10608;42.600;23.398;2024-03-17T03:55:18;84530.16;;;-138.15;81.08
20897;BME280;10608;42.600;23.398;2024-03-17T03:57:44;84530.16;;;-138.15;82.36
20897;BME280;10608;42.600;23.398;2024-03-17T04:00:17;84561.97;;;-138.15;82.99
20897;BME280;10608;42.600;23.398;2024-03-17T04:02:47;84542.09;;;-138.15;83.10
20897;BME280;10608;42.600;23.398;2024-03-17T04:05:13;84544.06;;;-138.15;83.50
20897;BME280;10608;42.600;23.398;2024-03-17T04:07:38;84522.19;;;-138.15;83.07
20897;BME280;10608;42.600;23.398;2024-03-17T04:10:05;84518.22;;;-138.15;82.92
20897;BME280;10608;42.600;23.398;2024-03-17T04:12:31;84516.22;;;-138.15;82.18
20897;BME280;10608;42.600;23.398;2024-03-17T04:14:58;84534.13;;;-138.15;82.19
20897;BME280;10608;42.600;23.398;2024-03-17T04:17:24;84534.13;;;-138.15;82.68
20897;BME280;10608;42.600;23.398;2024-03-17T04:19:50;84512.25;;;-138.15;82.78
20897;BME280;10608;42.600;23.398;2024-03-17T04:22:17;84530.16;;;-138.15;82.42
20897;BME280;10608;42.600;23.398;2024-03-17T04:24:46;84474.47;;;-138.15;82.57
20897;BME280;10608;42.600;23.398;2024-03-17T04:27:12;84542.09;;;-138.15;82.68
20897;BME280;10608;42.600;23.398;2024-03-17T04:29:41;84538.09;;;-138.15;82.02
20897;BME280;10608;42.600;23.398;2024-03-17T04:32:06;84530.16;;;-138.15;81.95
20897;BME280;10608;42.600;23.398;2024-03-17T04:34:32;84514.25;;;-138.15;82.17
20897;BME280;10608;42.600;23.398;2024-03-17T04:36:58;84518.22;;;-138.15;82.68
20897;BME280;10608;42.600;23.398;2024-03-17T04:39:24;84506.28;;;-138.15;82.85
20897;BME280;10608;42.600;23.398;2024-03-17T04:41:50;84508.28;;;-138.15;82.83
20897;BME280;10608;42.600;23.398;2024-03-17T04:44:16;84534.13;;;-138.15;82.88
20897;BME280;10608;42.600;23.398;2024-03-17T04:46:42;84484.44;;;-138.15;82.45
20897;BME280;10608;42.600;23.398;2024-03-17T04:49:07;84476.47;;;-138.15;82.04
20897;BME280;10608;42.600;23.398;2024-03-17T04:51:33;84442.66;;;-138.15;81.16
20897;BME280;10608;42.600;23.398;2024-03-17T04:53:59;84430.75;;;-138.15;80.36
20897;BME280;10608;42.600;23.398;2024-03-17T04:56:25;84482.44;;;-138.15;79.78
20897;BME280;10608;42.600;23.398;2024-03-17T04:58:50;84462.56;;;-138.15;78.88
20897;BME280;10608;42.600;23.398;2024-03-17T05:01:16;84484.44;;;-138.15;78.37
20897;BME280;10608;42.600;23.398;2024-03-17T05:03:41;84448.63;;;-138.15;77.35
20897;BME280;10608;42.600;23.398;2024-03-17T05:06:07;84363.16;;;-138.15;75.97
20897;BME280;10608;42.600;23.398;2024-03-17T05:08:33;84383.03;;;-138.15;73.78
20897;BME280;10608;42.600;23.398;2024-03-17T05:11:01;84383.03;;;-138.15;73.49
20897;BME280;10608;42.600;23.398;2024-03-17T05:13:30;84323.38;;;-138.15;72.04
20897;BME280;10608;42.600;23.398;2024-03-17T05:15:56;84283.63;;;-138.15;70.08
20897;BME280;10608;42.600;23.398;2024-03-17T05:18:22;84317.41;;;-138.15;68.36
20897;BME280;10608;42.600;23.398;2024-03-17T05:21:08;84263.75;;;-138.15;68.28
20897;BME280;10608;42.600;23.398;2024-03-17T05:23:35;84212.03;;;-138.15;67.59
20897;BME280;10608;42.600;23.398;2024-03-17T05:26:01;84088.78;;;-138.15;66.14
20897;BME280;10608;42.600;23.398;2024-03-17T05:28:29;83985.41;;;-138.15;62.33
20897;BME280;10608;42.600;23.398;2024-03-17T05:30:55;83864.16;;;-138.15;60.17
20897;BME280;10608;42.600;23.398;2024-03-17T05:33:22;83750.84;;;-138.15;55.09
20897;BME280;10608;42.600;23.398;2024-03-17T05:38:21;83476.53;;;-138.15;47.95
20897;BME280;10608;42.600;23.398;2024-03-17T05:40:56;83432.78;;;-138.15;45.02
20897;BME280;10608;42.600;23.398;2024-03-17T05:43:24;83337.38;;;-138.15;42.50
20897;BME280;10608;42.600;23.398;2024-03-17T05:45:54;83309.56;;;-138.15;41.18
20897;BME280;10608;42.600;23.398;2024-03-17T05:48:21;83114.78;;;-138.15;40.28
20897;BME280;10608;42.600;23.398;2024-03-17T05:50:47;83106.84;;;-138.15;38.75
20897;BME280;10608;42.600;23.398;2024-03-17T05:53:13;82989.56;;;-138.15;38.07
20897;BME280;10608;42.600;23.398;2024-03-17T05:55:38;82890.19;;;-138.15;37.44
20897;BME280;10608;42.600;23.398;2024-03-17T05:58:06;82800.75;;;-138.15;36.92
20897;BME280;10608;42.600;23.398;2024-03-17T06:00:34;82729.22;;;-138.15;35.99
20897;BME280;10608;42.600;23.398;2024-03-17T06:03:00;82697.41;;;-138.15;35.83
20897;BME280;10608;42.600;23.398;2024-03-17T06:05:25;82598.06;;;-138.15;34.62
20897;BME280;10608;42.600;23.398;2024-03-17T06:07:51;82625.88;;;-138.15;34.80
20897;BME280;10608;42.600;23.398;2024-03-17T06:10:17;82629.84;;;-138.15;34.72
20897;BME280;10608;42.600;23.398;2024-03-17T06:12:42;82582.16;;;-138.15;34.70
20897;BME280;10608;42.600;23.398;2024-03-17T06:15:08;82586.13;;;-138.15;34.50
20897;BME280;10608;42.600;23.398;2024-03-17T06:17:33;82506.66;;;-138.15;34.01
20897;BME280;10608;42.600;23.398;2024-03-17T06:20:00;82381.44;;;-138.15;33.56
20897;BME280;10608;42.600;23.398;2024-03-17T06:22:27;82276.13;;;-138.15;32.77
20897;BME280;10608;42.600;23.398;2024-03-17T06:24:52;82039.66;;;-138.15;31.77
20897;BME280;10608;42.600;23.398;2024-03-17T06:27:18;81910.53;;;-138.15;30.94
20897;BME280;10608;42.600;23.398;2024-03-17T06:29:44;81840.97;;;-138.15;30.59
20897;BME280;10608;42.600;23.398;2024-03-17T06:32:11;81789.31;;;-138.15;30.06
20897;BME280;10608;42.600;23.398;2024-03-17T06:34:36;81727.72;;;-138.15;29.68
20897;BME280;10608;42.600;23.398;2024-03-17T06:37:02;81660.16;;;-138.15;28.97
20897;BME280;10608;42.600;23.398;2024-03-17T06:39:28;81519.13;;;-138.15;28.62
20897;BME280;10608;42.600;23.398;2024-03-17T06:41:53;81491.28;;;-138.15;28.09
20897;BME280;10608;42.600;23.398;2024-03-17T06:44:19;81330.38;;;-138.15;27.62
20897;BME280;10608;42.600;23.398;2024-03-17T06:46:45;81242.97;;;-138.15;27.23
20897;BME280;10608;42.600;23.398;2024-03-17T06:49:12;80871.47;;;-138.15;26.33
20897;BME280;10608;42.600;23.398;2024-03-17T06:51:37;80645.03;;;-138.15;25.46
20897;BME280;10608;42.600;23.398;2024-03-17T06:54:03;80519.91;;;-138.15;24.73
20897;BME280;10608;42.600;23.398;2024-03-17T06:56:29;80420.59;;;-138.15;24.49
20897;BME280;10608;42.600;23.398;2024-03-17T06:58:54;80253.75;;;-138.15;23.90
20897;BME280;10608;42.600;23.398;2024-03-17T07:01:19;80110.75;;;-138.15;23.75
20897;BME280;10608;42.600;23.398;2024-03-17T07:03:45;80200.13;;;-138.15;23.50
20897;BME280;10608;42.600;23.398;2024-03-17T07:06:10;80378.88;;;-138.15;24.48
20897;BME280;10608;42.600;23.398;2024-03-17T07:08:36;80057.13;;;-138.15;23.65
20897;BME280;10608;42.600;23.398;2024-03-17T07:11:04;79618.25;;;-138.15;22.25
20897;BME280;10608;42.600;23.398;2024-03-17T07:13:37;79479.25;;;-138.15;22.01
20897;BME280;10608;42.600;23.398;2024-03-17T07:16:05;79608.31;;;-138.15;21.72
20897;BME280;10608;42.600;23.398;2024-03-17T07:18:36;79248.91;;;-138.15;21.37
20897;BME280;10608;42.600;23.398;2024-03-17T07:21:03;78990.78;;;-138.15;21.19
20897;BME280;10608;42.600;23.398;2024-03-17T07:23:30;78754.53;;;-138.15;20.02
20897;BME280;10608;42.600;23.398;2024-03-17T07:25:57;78949.09;;;-138.15;20.46
20897;BME280;10608;42.600;23.398;2024-03-17T07:28:23;79711.59;;;-138.15;21.70
20897;BME280;10608;42.600;23.398;2024-03-17T07:30:51;80130.63;;;-138.15;23.13
20897;BME280;10608;42.600;23.398;2024-03-17T07:33:17;80186.22;;;-138.15;23.09
20897;BME280;10608;42.600;23.398;2024-03-17T07:35:56;80456.34;;;-138.15;24.32
20897;BME280;10608;42.600;23.398;2024-03-17T07:38:25;79900.25;;;-138.15;22.63
20897;BME280;10608;42.600;23.398;2024-03-17T07:43:23;79743.34;;;-138.15;23.11
20897;BME280;10608;42.600;23.398;2024-03-17T07:46:10;79415.69;;;-138.15;21.80
20897;BME280;10608;42.600;23.398;2024-03-17T07:48:38;79280.69;;;-138.15;21.28
20897;BME280;10608;42.600;23.398;2024-03-17T07:51:08;79336.28;;;-138.15;21.82
20897;BME280;10608;42.600;23.398;2024-03-17T07:53:37;80279.56;;;-138.15;23.90
20897;BME280;10608;42.600;23.398;2024-03-17T07:56:07;80446.41;;;-138.15;24.17
20897;BME280;10608;42.600;23.398;2024-03-17T07:58:35;80893.34;;;-138.15;25.75
20897;BME280;10608;42.600;23.398;2024-03-17T08:01:03;81270.78;;;-138.15;27.72
20897;BME280;10608;42.600;23.398;2024-03-17T08:03:29;81556.84;;;-138.15;29.13
20897;BME280;10608;42.600;23.398;2024-03-17T08:05:57;81711.81;;;-138.15;29.67
20897;BME280;10608;42.600;23.398;2024-03-17T08:08:23;82121.13;;;-138.15;31.31
20897;BME280;10608;42.600;23.398;2024-03-17T08:10:49;82224.47;;;-138.15;32.16
20897;BME280;10608;42.600;23.398;2024-03-17T08:13:16;82393.38;;;-138.15;33.39
20897;BME280;10608;42.600;23.398;2024-03-17T08:15:42;82562.28;;;-138.15;34.31
20897;BME280;10608;42.600;23.398;2024-03-17T08:18:11;82602.03;;;-138.15;34.80
20897;BME280;10608;42.600;23.398;2024-03-17T08:20:41;82341.72;;;-138.15;34.10
20897;BME280;10608;42.600;23.398;2024-03-17T08:23:07;82125.13;;;-138.15;33.14
20897;BME280;10608;42.600;23.398;2024-03-17T08:25:34;82101.25;;;-138.15;32.52
20897;BME280;10608;42.600;23.398;2024-03-17T08:28:00;82262.22;;;-138.15;32.72
20897;BME280;10608;42.600;23.398;2024-03-17T08:30:25;82478.81;;;-138.15;34.38
20897;BME280;10608;42.600;23.398;2024-03-17T08:32:51;82689.47;;;-138.15;36.00
20897;BME280;10608;42.600;23.398;2024-03-17T08:35:16;82490.75;;;-138.15;34.96
20897;BME280;10608;42.600;23.398;2024-03-17T08:37:42;82514.59;;;-138.15;35.52
20897;BME280;10608;42.600;23.398;2024-03-17T08:40:08;82458.94;;;-138.15;34.85
20897;BME280;10608;42.600;23.398;2024-03-17T08:42:33;82248.31;;;-138.15;34.37
20897;BME280;10608;42.600;23.398;2024-03-17T08:44:58;81984.03;;;-138.15;32.34
20897;BME280;10608;42.600;23.398;2024-03-17T08:47:24;81809.19;;;-138.15;31.27
20897;BME280;10608;42.600;23.398;2024-03-17T08:49:52;81908.53;;;-138.15;31.22
20897;BME280;10608;42.600;23.398;2024-03-17T08:52:18;81656.19;;;-138.15;30.36
20897;BME280;10608;42.600;23.398;2024-03-17T08:54:49;81771.44;;;-138.15;31.08
20897;BME280;10608;42.600;23.398;2024-03-17T08:57:17;81537.00;;;-138.15;31.06
20897;BME280;10608;42.600;23.398;2024-03-17T08:59:46;81479.38;;;-138.15;29.45
20897;BME280;10608;42.600;23.398;2024-03-17T09:02:13;81258.84;;;-138.15;28.74
20897;BME280;10608;42.600;23.398;2024-03-17T09:04:43;80855.59;;;-138.15;27.95
20897;BME280;10608;42.600;23.398;2024-03-17T09:07:08;80718.53;;;-138.15;26.45
20897;BME280;10608;42.600;23.398;2024-03-17T09:09:33;80730.44;;;-138.15;26.08
20897;BME280;10608;42.600;23.398;2024-03-17T09:11:59;80527.84;;;-138.15;25.75
20897;BME280;10608;42.600;23.398;2024-03-17T09:14:24;80859.56;;;-138.15;26.50
20897;BME280;10608;42.600;23.398;2024-03-17T09:16:50;80917.16;;;-138.15;26.78
20897;BME280;10608;42.600;23.398;2024-03-17T09:19:15;81040.34;;;-138.15;27.25
20897;BME280;10608;42.600;23.398;2024-03-17T09:21:41;81548.91;;;-138.15;28.54
20897;BME280;10608;42.600;23.398;2024-03-17T09:24:06;81195.28;;;-138.15;29.00
20897;BME280;10608;42.600;23.398;2024-03-17T09:26:36;81012.53;;;-138.15;27.05
20897;BME280;10608;42.600;23.398;2024-03-17T09:29:04;81566.78;;;-138.15;28.94
20897;BME280;10608;42.600;23.398;2024-03-17T09:31:30;81032.38;;;-138.15;28.02
20897;BME280;10608;42.600;23.398;2024-03-17T09:33:59;80766.22;;;-138.15;26.20
20897;BME280;10608;42.600;23.398;2024-03-17T09:36:24;80285.53;;;-138.15;24.71
20897;BME280;10608;42.600;23.398;2024-03-17T09:38:49;80277.59;;;-138.15;23.93
20897;BME280;10608;42.600;23.398;2024-03-17T09:41:20;80267.66;;;-138.15;24.03
20897;BME280;10608;42.600;23.398;2024-03-17T09:43:47;80343.13;;;-138.15;24.01
20897;BME280;10608;42.600;23.398;2024-03-17T09:46:14;80376.91;;;-138.15;24.54
20897;BME280;10608;42.600;23.398;2024-03-17T09:48:40;80341.16;;;-138.15;23.83
20897;BME280;10608;42.600;23.398;2024-03-17T09:51:06;80323.28;;;-138.15;24.38
20897;BME280;10608;42.600;23.398;2024-03-17T09:53:33;80297.44;;;-138.15;23.11
20897;BME280;10608;42.600;23.398;2024-03-17T09:55:59;80345.13;;;-138.15;22.73
20897;BME280;10608;42.600;23.398;2024-03-17T09:58:25;80889.38;;;-138.15;23.11
20897;BME280;10608;42.600;23.398;2024-03-17T10:00:51;81091.97;;;-138.15;23.54
20897;BME280;10608;42.600;23.398;2024-03-17T10:06:26;80845.66;;;-138.15;22.53
20897;BME280;10608;42.600;23.398;2024-03-17T10:08:56;81131.72;;;-138.15;23.96
20897;BME280;10608;42.600;23.398;2024-03-17T10:11:34;80986.69;;;-138.15;23.80
20897;BME280;10608;42.600;23.398;2024-03-17T10:14:05;81050.28;;;-138.15;22.65
20897;BME280;10608;42.600;23.398;2024-03-17T10:16:32;81058.22;;;-138.15;23.15
20897;BME280;10608;42.600;23.398;2024-03-17T10:19:09;81515.13;;;-138.15;23.46
20897;BME280;10608;42.600;23.398;2024-03-17T10:21:38;81459.50;;;-138.15;23.94
20897;BME280;10608;42.600;23.398;2024-03-17T10:24:25;81894.63;;;-138.15;24.66
20897;BME280;10608;42.600;23.398;2024-03-17T10:26:54;82005.88;;;-138.15;25.65
20897;BME280;10608;42.600;23.398;2024-03-17T10:29:27;81805.22;;;-138.15;26.23
20897;BME280;10608;42.600;23.398;2024-03-17T10:32:03;81918.47;;;-138.15;23.91
20897;BME280;10608;42.600;23.398;2024-03-17T10:34:30;81928.41;;;-138.15;24.74
20897;BME280;10608;42.600;23.398;2024-03-17T10:37:11;81743.63;;;-138.15;25.58
20897;BME280;10608;42.600;23.398;2024-03-17T10:39:40;81775.41;;;-138.15;23.93
20897;BME280;10608;42.600;23.398;2024-03-17T10:42:07;81999.94;;;-138.15;24.15
20897;BME280;10608;42.600;23.398;2024-03-17T10:44:35;82119.16;;;-138.15;25.53
20897;BME280;10608;42.600;23.398;2024-03-17T10:47:01;82063.50;;;-138.15;25.49
20897;BME280;10608;42.600;23.398;2024-03-17T10:49:33;82077.44;;;-138.15;25.85
20897;BME280;10608;42.600;23.398;2024-03-17T10:52:15;82160.88;;;-138.15;26.08
20897;BME280;10608;42.600;23.398;2024-03-17T10:54:47;82268.19;;;-138.15;27.63
20897;BME280;10608;42.600;23.398;2024-03-17T10:57:31;82258.25;;;-138.15;27.71
20897;BME280;10608;42.600;23.398;2024-03-17T10:59:59;82059.53;;;-138.15;26.13
20897;BME280;10608;42.600;23.398;2024-03-17T11:02:26;81827.06;;;-138.15;26.62
20897;BME280;10608;42.600;23.398;2024-03-17T11:04:56;81632.34;;;-138.15;25.23
20897;BME280;10608;42.600;23.398;2024-03-17T11:07:23;81546.94;;;-138.15;25.02
20897;BME280;10608;42.600;23.398;2024-03-17T11:09:51;81491.28;;;-138.15;25.45
20897;BME280;10608;42.600;23.398;2024-03-17T11:17:52;81636.31;;;-138.15;25.15
20897;BME280;10608;42.600;23.398;2024-03-17T11:20:26;81586.66;;;-138.15;24.66
20897;BME280;10608;42.600;23.398;2024-03-17T11:22:58;81441.63;;;-138.15;24.90
20897;BME280;10608;42.600;23.398;2024-03-17T11:27:56;81300.56;;;-138.15;23.75
20897;BME280;10608;42.600;23.398;2024-03-17T11:47:04;81769.44;;;-138.15;27.02
20897;BME280;10608;42.600;23.398;2024-03-17T11:49:32;81648.25;;;-138.15;27.15
20897;BME280;10608;42.600;23.398;2024-03-17T11:54:37;81968.13;;;-138.15;27.25
20897;BME280;10608;42.600;23.398;2024-03-17T11:57:07;81846.94;;;-138.15;28.17
20897;BME280;10608;42.600;23.398;2024-03-17T11:59:34;81970.13;;;-138.15;28.02
20897;BME280;10608;42.600;23.398;2024-03-17T12:02:00;81902.56;;;-138.15;29.44
20897;BME280;10608;42.600;23.398;2024-03-17T12:04:27;81765.47;;;-138.15;28.35
20897;BME280;10608;42.600;23.398;2024-03-17T12:06:58;81664.16;;;-138.15;27.72
20897;BME280;10608;42.600;23.398;2024-03-17T12:09:30;81652.22;;;-138.15;27.24
20897;BME280;10608;42.600;23.398;2024-03-17T12:12:04;81674.06;;;-138.15;27.11
20897;BME280;10608;42.600;23.398;2024-03-17T12:14:32;81783.34;;;-138.15;26.88
20897;BME280;10608;42.600;23.398;2024-03-17T12:17:00;81779.38;;;-138.15;27.90
20897;BME280;10608;42.600;23.398;2024-03-17T12:19:27;81644.28;;;-138.15;26.79
20897;BME280;10608;42.600;23.398;2024-03-17T12:21:54;81576.72;;;-138.15;26.60
20897;BME280;10608;42.600;23.398;2024-03-17T12:24:31;81505.19;;;-138.15;25.77
20897;BME280;10608;42.600;23.398;2024-03-17T12:26:58;81735.66;;;-138.15;26.58
20897;BME280;10608;42.600;23.398;2024-03-17T12:29:38;81922.44;;;-138.15;26.00
20897;BME280;10608;42.600;23.398;2024-03-17T12:34:36;81751.56;;;-138.15;26.23
20897;BME280;10608;42.600;23.398;2024-03-17T12:37:01;81759.50;;;-138.15;26.13
20897;BME280;10608;42.600;23.398;2024-03-17T12:39:29;81825.09;;;-138.15;27.32
20897;BME280;10608;42.600;23.398;2024-03-17T12:42:10;81864.81;;;-138.15;27.08
20897;BME280;10608;42.600;23.398;2024-03-17T12:44:39;81825.09;;;-138.15;27.18
20897;BME280;10608;42.600;23.398;2024-03-17T12:47:15;81910.53;;;-138.15;27.08
20897;BME280;10608;42.600;23.398;2024-03-17T12:49:50;81966.16;;;-138.15;27.54
20897;BME280;10608;42.600;23.398;2024-03-17T12:54:56;82005.88;;;-138.15;28.76
20897;BME280;10608;42.600;23.398;2024-03-17T12:57:42;82029.75;;;-138.15;28.62
20897;BME280;10608;42.600;23.398;2024-03-17T13:00:26;81904.56;;;-138.15;28.93
20897;BME280;10608;42.600;23.398;2024-03-17T13:02:59;81980.06;;;-138.15;29.27
20897;BME280;10608;42.600;23.398;2024-03-17T13:05:24;82037.69;;;-138.15;29.65
20897;BME280;10608;42.600;23.398;2024-03-17T13:07:50;82053.56;;;-138.15;30.07
20897;BME280;10608;42.600;23.398;2024-03-17T13:10:17;82059.53;;;-138.15;30.36
20897;BME280;10608;42.600;23.398;2024-03-17T13:12:47;82081.41;;;-138.15;30.20